Airport View

Enter AWOS ICAO identifier for current METAR.

ex. KFNL

KFOD 250156Z AUTO 00000KT 8SM FEW027 SCT090 SCT110 21/19 A2984 RMK AO2 LTG DSNT NE-SE SLP129 T02060189

25 May 2020 02:48

Frequency: 118.775

Phone: 515-955-5490

Other Area AWOS: KEBS - KCAV - KAXA - KBNW

TAF AMD KFOD 250224Z 2502/2524 20009KT P6SM -SHRA FEW030 BKN090 FM250500 18004KT P6SM OVC045 FM250900 25004KT P6SM BKN015 FM251400 33004KT P6SM BKN050 FM252300 19006KT 6SM -SHRA VCTS BKN060CB